createdAt,value
2018-06-15T00:02:20.063Z,86.11
2018-06-15T00:04:53.235Z,86.12
2018-06-15T00:07:27.641Z,86.09
2018-06-15T00:10:01.463Z,86.21
2018-06-15T00:12:35.170Z,86.14
2018-06-15T00:15:06.817Z,86.21
2018-06-15T00:18:04.128Z,86.21
2018-06-15T00:20:48.325Z,86.19
2018-06-15T00:23:20.821Z,86.11
2018-06-15T00:25:53.698Z,86.18
2018-06-15T00:28:26.476Z,86.28
2018-06-15T00:30:59.108Z,86.49
2018-06-15T00:33:32.645Z,86.41
2018-06-15T00:36:05.344Z,86.06
2018-06-15T00:38:37.909Z,85.72
2018-06-15T00:41:10.665Z,85.46
2018-06-15T00:43:43.096Z,85.77
2018-06-15T00:46:15.653Z,86.17
2018-06-15T00:48:48.365Z,86.29
2018-06-15T00:51:20.832Z,86.19
2018-06-15T00:53:54.871Z,86.31
2018-06-15T00:56:28.254Z,86.42
2018-06-15T00:59:00.625Z,86.27
2018-06-15T01:01:34.656Z,86.36
2018-06-15T01:04:08.331Z,86.41
2018-06-15T01:06:40.944Z,86.52
2018-06-15T01:09:14.128Z,86.52
2018-06-15T01:11:48.435Z,86.68
2018-06-15T01:14:20.971Z,86.62
2018-06-15T01:16:53.517Z,86.86
2018-06-15T01:19:26.364Z,87.15
2018-06-15T01:21:59.232Z,87.10
2018-06-15T01:24:31.639Z,87.04
2018-06-15T01:27:05.860Z,87.05
2018-06-15T01:29:38.324Z,86.61
2018-06-15T01:32:10.792Z,86.60
2018-06-15T01:34:43.641Z,86.65
2018-06-15T01:37:19.638Z,86.65
2018-06-15T01:39:52.260Z,86.51
2018-06-15T01:42:25.715Z,86.51
2018-06-15T01:44:59.844Z,86.54
2018-06-15T01:47:37.295Z,86.49
2018-06-15T01:50:10.026Z,86.20
2018-06-15T01:52:42.806Z,86.37
2018-06-15T01:55:16.423Z,86.29
2018-06-15T01:57:49.148Z,86.32
2018-06-15T02:00:22.009Z,86.41
2018-06-15T02:03:03.729Z,86.47
2018-06-15T02:05:36.673Z,86.48
2018-06-15T02:08:09.288Z,86.56
2018-06-15T02:10:44.954Z,86.65
2018-06-15T02:13:18.079Z,86.59
2018-06-15T02:15:50.844Z,86.47
2018-06-15T02:18:23.261Z,86.23
2018-06-15T02:20:57.379Z,86.13
2018-06-15T02:23:29.839Z,85.94
2018-06-15T02:26:04.339Z,86.13
2018-06-15T02:28:37.911Z,86.29
2018-06-15T02:31:10.444Z,86.29
2018-06-15T02:33:43.901Z,86.19
2018-06-15T02:36:17.864Z,86.24
2018-06-15T02:38:50.487Z,86.32
2018-06-15T02:41:23.063Z,86.59
2018-06-15T02:43:55.785Z,87.10
2018-06-15T02:46:28.182Z,87.05
2018-06-15T02:49:00.703Z,86.93
2018-06-15T02:51:34.593Z,86.77
2018-06-15T02:54:07.166Z,86.53
2018-06-15T02:56:40.032Z,86.72
2018-06-15T02:59:12.885Z,86.72
2018-06-15T03:01:45.440Z,86.59
2018-06-15T03:04:17.953Z,86.26
2018-06-15T03:06:50.713Z,86.24
2018-06-15T03:09:23.356Z,86.49
2018-06-15T03:11:55.901Z,86.46
2018-06-15T03:14:56.822Z,86.45
2018-06-15T03:17:32.978Z,86.62
2018-06-15T03:20:05.573Z,86.71
2018-06-15T03:22:41.076Z,86.67
2018-06-15T03:25:15.416Z,86.90
2018-06-15T03:27:48.084Z,86.85
2018-06-15T03:30:22.041Z,87.27
2018-06-15T03:35:27.600Z,87.45
2018-06-15T03:38:00.321Z,87.73
2018-06-15T03:40:32.691Z,87.97
2018-06-15T03:43:05.512Z,87.70
2018-06-15T03:45:38.331Z,87.85
2018-06-15T03:48:10.900Z,88.13
2018-06-15T03:50:43.991Z,88.21
2018-06-15T03:53:18.605Z,88.42
2018-06-15T03:55:51.195Z,88.63
2018-06-15T03:58:23.877Z,88.68
2018-06-15T04:00:58.231Z,88.69
2018-06-15T04:03:31.292Z,88.79
2018-06-15T04:06:03.725Z,88.77
2018-06-15T04:08:36.640Z,88.35
2018-06-15T04:11:09.984Z,88.18
2018-06-15T04:13:44.458Z,88.19
2018-06-15T04:16:17.149Z,88.07
2018-06-15T04:18:49.633Z,87.93
2018-06-15T04:21:22.190Z,87.92
2018-06-15T04:23:56.044Z,87.99
2018-06-15T04:26:28.484Z,87.90
2018-06-15T04:29:00.961Z,87.87
2018-06-15T04:31:36.504Z,87.68
2018-06-15T04:34:09.004Z,87.54
2018-06-15T04:36:43.425Z,87.19
2018-06-15T04:39:16.317Z,86.98
2018-06-15T04:41:48.612Z,86.95
2018-06-15T04:44:21.064Z,86.87
2018-06-15T04:46:54.736Z,86.64
2018-06-15T04:49:27.243Z,86.59
2018-06-15T04:52:00.017Z,86.18
2018-06-15T04:54:32.900Z,86.07
2018-06-15T04:57:05.490Z,86.10
2018-06-15T04:59:38.011Z,86.02
2018-06-15T05:02:11.670Z,85.78
2018-06-15T05:04:45.684Z,85.40
2018-06-15T05:07:17.987Z,84.63
2018-06-15T05:09:50.621Z,84.58
2018-06-15T05:12:24.223Z,84.42
2018-06-15T05:14:57.082Z,84.53
2018-06-15T05:17:33.250Z,84.27
2018-06-15T05:20:07.512Z,83.72
2018-06-15T05:22:40.049Z,83.83
2018-06-15T05:25:13.689Z,83.18
2018-06-15T05:27:46.396Z,82.45
2018-06-15T05:30:20.016Z,82.47
2018-06-15T05:32:53.735Z,81.75
2018-06-15T05:35:39.646Z,82.08
2018-06-15T05:38:13.628Z,81.20
2018-06-15T05:40:52.332Z,81.37
2018-06-15T05:43:25.175Z,81.71
2018-06-15T05:45:58.480Z,81.85
2018-06-15T05:48:31.249Z,81.69
2018-06-15T05:51:03.792Z,81.01
2018-06-15T05:53:38.548Z,81.13
2018-06-15T05:56:11.532Z,81.55
2018-06-15T05:58:44.658Z,81.41
2018-06-15T06:01:18.945Z,81.02
2018-06-15T06:03:52.384Z,80.48
2018-06-15T06:06:24.953Z,79.73
2018-06-15T06:09:00.464Z,79.06
2018-06-15T06:11:36.113Z,77.60
2018-06-15T06:14:10.404Z,77.50
2018-06-15T06:16:43.897Z,77.31
2018-06-15T06:19:16.710Z,75.54
2018-06-15T06:21:52.237Z,75.02
2018-06-15T06:24:25.884Z,74.25
2018-06-15T06:27:02.740Z,74.03
2018-06-15T06:29:35.780Z,73.85
2018-06-15T06:32:08.797Z,72.28
2018-06-15T06:34:43.076Z,71.62
2018-06-15T06:37:19.400Z,70.95
2018-06-15T06:39:51.843Z,70.63
2018-06-15T06:42:26.143Z,70.44
2018-06-15T06:44:58.587Z,69.19
2018-06-15T06:47:32.999Z,70.03
2018-06-15T06:50:09.191Z,71.00
2018-06-15T06:52:43.847Z,70.99
2018-06-15T06:55:17.117Z,71.78
2018-06-15T06:57:52.817Z,71.88
2018-06-15T07:00:25.261Z,71.59
2018-06-15T07:03:03.065Z,71.65
2018-06-15T07:05:36.936Z,69.87
2018-06-15T07:08:11.324Z,69.87
2018-06-15T07:10:44.608Z,68.40
2018-06-15T07:13:19.421Z,68.21
2018-06-15T07:15:52.005Z,66.77
2018-06-15T07:18:26.494Z,66.74
2018-06-15T07:21:01.276Z,67.00
2018-06-15T07:23:37.407Z,66.16
2018-06-15T07:26:12.666Z,65.08
2018-06-15T07:28:46.396Z,63.82
2018-06-15T07:31:19.304Z,64.70
2018-06-15T07:33:52.203Z,64.88
2018-06-15T07:36:26.784Z,63.98
2018-06-15T07:39:02.108Z,62.92
2018-06-15T07:41:35.667Z,64.07
2018-06-15T07:44:12.713Z,64.08
2018-06-15T07:46:47.568Z,62.53
2018-06-15T07:49:20.476Z,63.18
2018-06-15T07:51:54.107Z,62.48
2018-06-15T07:54:27.653Z,62.54
2018-06-15T07:57:04.632Z,62.38
2018-06-15T07:59:39.991Z,62.52
2018-06-15T08:02:16.730Z,62.40
2018-06-15T08:04:52.521Z,61.23
2018-06-15T08:07:28.594Z,61.38
2018-06-15T08:10:06.506Z,59.70
2018-06-15T08:12:40.854Z,60.42
2018-06-15T08:15:19.493Z,60.01
2018-06-15T08:17:59.943Z,58.26
2018-06-15T08:20:33.792Z,55.60
2018-06-15T08:23:08.120Z,55.71
2018-06-15T08:25:40.868Z,53.69
2018-06-15T08:28:15.145Z,53.18
2018-06-15T08:30:51.045Z,52.91
2018-06-15T08:33:25.242Z,54.17
2018-06-15T08:36:00.680Z,56.02
2018-06-15T08:38:33.527Z,55.61
2018-06-15T08:41:10.673Z,54.81
2018-06-15T08:43:45.359Z,52.26
2018-06-15T08:46:19.277Z,52.29
2018-06-15T08:48:52.419Z,52.47
2018-06-15T08:51:26.241Z,52.69
2018-06-15T08:54:01.716Z,51.12
2018-06-15T08:56:34.289Z,49.64
2018-06-15T08:59:08.697Z,50.95
2018-06-15T09:01:43.039Z,52.02
2018-06-15T09:04:17.218Z,54.02
2018-06-15T09:06:50.644Z,54.13
2018-06-15T09:09:23.517Z,54.97
2018-06-15T09:11:56.144Z,54.13
2018-06-15T09:14:31.556Z,53.90
2018-06-15T09:17:05.539Z,55.06
2018-06-15T09:19:40.928Z,53.91
2018-06-15T09:22:14.540Z,50.87
2018-06-15T09:24:47.011Z,48.59
2018-06-15T09:27:20.072Z,46.44
2018-06-15T09:29:56.128Z,45.77
2018-06-15T09:32:29.867Z,45.39
2018-06-15T09:35:03.519Z,45.06
2018-06-15T09:37:36.443Z,43.72
2018-06-15T09:40:08.976Z,44.07
2018-06-15T09:42:48.353Z,44.66
2018-06-15T09:45:23.929Z,44.21
2018-06-15T09:47:59.102Z,43.40
2018-06-15T09:50:33.672Z,42.25
2018-06-15T09:53:06.891Z,39.33
2018-06-15T09:55:40.012Z,40.05
2018-06-15T09:58:14.839Z,42.18
2018-06-15T10:00:52.012Z,43.37
2018-06-15T10:03:25.556Z,41.38
2018-06-15T10:05:59.488Z,41.38
2018-06-15T10:08:33.613Z,40.85
2018-06-15T10:11:09.100Z,40.03
2018-06-15T10:13:46.662Z,40.35
2018-06-15T10:16:23.584Z,39.33
2018-06-15T10:19:00.422Z,38.50
2018-06-15T10:21:33.448Z,40.26
2018-06-15T10:24:11.083Z,40.26
2018-06-15T10:26:45.648Z,39.12
2018-06-15T10:29:22.982Z,38.45
2018-06-15T10:31:58.319Z,38.86
2018-06-15T10:34:35.243Z,39.06
2018-06-15T10:37:10.051Z,38.04
2018-06-15T10:39:46.383Z,39.57
2018-06-15T10:42:20.356Z,38.25
2018-06-15T10:44:55.797Z,36.83
2018-06-15T10:47:31.840Z,36.90
2018-06-15T10:50:07.338Z,35.45
2018-06-15T10:52:44.021Z,36.46
2018-06-15T10:55:18.172Z,35.04
2018-06-15T10:57:51.683Z,35.89
2018-06-15T11:00:26.362Z,36.88
2018-06-15T11:02:58.712Z,36.94
2018-06-15T11:05:37.495Z,35.87
2018-06-15T11:08:13.271Z,34.73
2018-06-15T11:10:47.043Z,36.33
2018-06-15T11:13:21.265Z,37.16
2018-06-15T11:15:57.316Z,36.39
2018-06-15T11:18:32.037Z,32.99
2018-06-15T11:21:06.024Z,33.72
2018-06-15T11:23:41.480Z,34.98
2018-06-15T11:26:13.774Z,34.49
2018-06-15T11:28:47.887Z,33.96
2018-06-15T11:31:23.722Z,35.50
2018-06-15T11:33:58.266Z,35.41
2018-06-15T11:36:32.676Z,35.17
2018-06-15T11:39:10.576Z,35.90
2018-06-15T11:41:43.168Z,37.48
2018-06-15T11:44:18.486Z,38.00
2018-06-15T11:46:54.153Z,37.59
2018-06-15T11:49:29.442Z,37.26
2018-06-15T11:52:04.308Z,37.71
2018-06-15T11:54:38.769Z,37.98
2018-06-15T11:57:12.895Z,37.05
2018-06-15T11:59:46.919Z,37.69
2018-06-15T12:02:20.455Z,36.65
2018-06-15T12:04:56.083Z,35.72
2018-06-15T12:07:47.432Z,34.60
2018-06-15T12:10:20.667Z,32.09
2018-06-15T12:12:53.854Z,32.60
2018-06-15T12:15:28.711Z,32.02
2018-06-15T12:18:02.533Z,32.20
2018-06-15T12:20:36.827Z,32.06
2018-06-15T12:23:14.621Z,31.93
2018-06-15T12:25:48.401Z,33.02
2018-06-15T12:28:21.975Z,32.59
2018-06-15T12:30:57.729Z,31.51
2018-06-15T12:33:30.669Z,32.07
2018-06-15T12:36:04.677Z,32.21
2018-06-15T12:38:39.695Z,33.87
2018-06-15T12:41:17.094Z,33.91
2018-06-15T12:44:00.368Z,34.11
2018-06-15T12:46:36.593Z,33.58
2018-06-15T12:49:11.583Z,32.74
2018-06-15T12:51:46.456Z,32.41
2018-06-15T12:54:24.096Z,31.95
2018-06-15T12:57:02.349Z,31.06
2018-06-15T12:59:36.017Z,30.88
2018-06-15T13:02:10.754Z,32.62
2018-06-15T13:04:45.475Z,34.72
2018-06-15T13:07:20.731Z,35.29
2018-06-15T13:09:59.074Z,35.15
2018-06-15T13:12:34.383Z,35.71
2018-06-15T13:15:07.191Z,36.86
2018-06-15T13:17:41.372Z,36.72
2018-06-15T13:20:14.399Z,38.00
2018-06-15T13:22:47.406Z,39.10
2018-06-15T13:25:21.466Z,39.50
2018-06-15T13:27:56.434Z,38.49
2018-06-15T13:30:30.733Z,38.45
2018-06-15T13:33:04.993Z,37.90
2018-06-15T13:35:37.886Z,37.53
2018-06-15T13:38:11.471Z,36.32
2018-06-15T13:40:44.344Z,36.64
2018-06-15T13:43:19.755Z,36.05
2018-06-15T13:45:54.756Z,36.36
2018-06-15T13:48:28.827Z,35.87
2018-06-15T13:51:01.544Z,36.01
2018-06-15T13:53:36.129Z,34.26
2018-06-15T13:56:10.524Z,33.79
2018-06-15T13:58:45.997Z,35.64
2018-06-15T14:01:23.786Z,36.10
2018-06-15T14:03:58.447Z,34.47
2018-06-15T14:06:32.615Z,34.17
2018-06-15T14:09:09.355Z,34.23
2018-06-15T14:11:51.078Z,35.03
2018-06-15T14:14:26.328Z,35.34
2018-06-15T14:17:02.185Z,34.24
2018-06-15T14:19:38.129Z,35.59
2018-06-15T14:22:11.316Z,35.82
2018-06-15T14:24:46.422Z,36.34
2018-06-15T14:27:22.650Z,36.22
2018-06-15T14:30:05.933Z,35.23
2018-06-15T14:32:40.837Z,34.45
2018-06-15T14:35:13.372Z,33.15
2018-06-15T14:37:46.357Z,33.08
2018-06-15T14:40:20.045Z,35.48
2018-06-15T14:42:52.636Z,36.25
2018-06-15T14:45:29.084Z,37.10
2018-06-15T14:48:04.756Z,37.20
2018-06-15T14:50:43.201Z,38.00
2018-06-15T14:53:18.836Z,36.97
2018-06-15T14:55:53.627Z,36.16
2018-06-15T14:58:41.061Z,35.36
2018-06-15T15:01:18.236Z,34.91
2018-06-15T15:03:53.044Z,33.24
2018-06-15T15:06:26.913Z,32.73
2018-06-15T15:09:01.734Z,32.13
2018-06-15T15:11:36.076Z,32.15
2018-06-15T15:14:11.896Z,33.15
2018-06-15T15:16:46.135Z,35.90
2018-06-15T15:19:24.372Z,36.04
2018-06-15T15:22:00.690Z,38.34
2018-06-15T15:24:34.860Z,38.61
2018-06-15T15:27:09.193Z,38.73
2018-06-15T15:29:43.794Z,39.38
2018-06-15T15:32:18.164Z,39.80
2018-06-15T15:34:51.508Z,39.87
2018-06-15T15:37:27.826Z,41.30
2018-06-15T15:40:01.716Z,42.04
2018-06-15T15:42:34.952Z,42.06
2018-06-15T15:45:08.104Z,41.81
2018-06-15T15:47:43.025Z,42.63
2018-06-15T15:50:15.468Z,42.39
2018-06-15T15:52:48.366Z,42.59
2018-06-15T15:55:22.566Z,42.21
2018-06-15T15:57:57.033Z,42.44
2018-06-15T16:00:32.304Z,41.48
2018-06-15T16:03:08.101Z,40.36
2018-06-15T16:05:44.932Z,40.13
2018-06-15T16:08:19.276Z,39.37
2018-06-15T16:10:54.678Z,39.79
2018-06-15T16:13:32.185Z,40.61
2018-06-15T16:16:07.424Z,40.40
2018-06-15T16:18:42.989Z,39.77
2018-06-15T16:21:18.709Z,39.72
2018-06-15T16:23:54.187Z,39.79
2018-06-15T16:26:29.542Z,39.51
2018-06-15T16:29:02.076Z,40.22
2018-06-15T16:31:35.912Z,40.41
2018-06-15T16:34:09.367Z,39.14
2018-06-15T16:36:49.650Z,37.33
2018-06-15T16:39:59.425Z,36.33
2018-06-15T16:42:35.972Z,36.69
2018-06-15T16:45:42.468Z,37.02
2018-06-15T16:48:32.780Z,37.66
2018-06-15T16:51:09.960Z,38.09
2018-06-15T16:53:58.388Z,38.71
2018-06-15T16:56:35.161Z,39.02
2018-06-15T16:59:13.014Z,38.94
2018-06-15T17:01:54.914Z,38.35
2018-06-15T17:04:30.351Z,37.24
2018-06-15T17:07:05.673Z,35.47
2018-06-15T17:09:40.321Z,35.02
2018-06-15T17:12:19.281Z,33.34
2018-06-15T17:14:55.181Z,32.79
2018-06-15T17:17:32.815Z,32.96
2018-06-15T17:20:06.474Z,32.54
2018-06-15T17:22:39.948Z,32.79
2018-06-15T17:25:12.844Z,33.42
2018-06-15T17:27:47.312Z,33.13
2018-06-15T17:30:20.377Z,33.30
2018-06-15T17:32:56.528Z,34.16
2018-06-15T17:35:30.933Z,35.28
2018-06-15T17:38:06.236Z,35.11
2018-06-15T17:40:41.449Z,34.95
2018-06-15T17:43:15.985Z,35.46
2018-06-15T17:45:50.788Z,36.40
2018-06-15T17:48:32.614Z,37.57
2018-06-15T17:51:07.078Z,38.30
2018-06-15T17:53:41.541Z,38.40
2018-06-15T17:56:15.440Z,38.71
2018-06-15T17:58:49.768Z,39.65
2018-06-15T18:01:24.968Z,40.33
2018-06-15T18:04:13.699Z,40.23
2018-06-15T18:06:56.580Z,40.39
2018-06-15T18:09:38.443Z,40.18
2018-06-15T18:12:24.690Z,40.36
2018-06-15T18:14:59.473Z,41.09
2018-06-15T18:17:33.693Z,41.62
2018-06-15T19:07:50.170Z,46.56
2018-06-15T19:10:26.764Z,47.03
2018-06-15T19:13:01.101Z,50.27
2018-06-15T19:15:38.942Z,50.98
2018-06-15T19:18:11.684Z,51.78
2018-06-15T19:20:45.786Z,52.95
2018-06-15T19:23:21.625Z,52.85
2018-06-15T19:25:55.274Z,53.38
2018-06-15T19:28:30.755Z,53.37
2018-06-15T19:31:18.029Z,54.20
2018-06-15T19:33:53.301Z,55.10
2018-06-15T19:36:26.601Z,55.90
2018-06-15T19:39:00.088Z,57.64
2018-06-15T19:41:33.818Z,58.40
2018-06-15T19:44:07.119Z,58.88
2018-06-15T19:46:41.037Z,60.09
2018-06-15T19:49:15.608Z,60.75
2018-06-15T19:51:52.549Z,60.74
2018-06-15T19:54:28.457Z,60.44
2018-06-15T19:57:04.410Z,60.67
2018-06-15T19:59:40.501Z,61.14
2018-06-15T20:02:15.496Z,62.42
2018-06-15T20:04:51.120Z,62.57
2018-06-15T20:07:27.963Z,63.37
2018-06-15T20:10:05.232Z,63.99
2018-06-15T20:12:40.632Z,64.52
2018-06-15T20:15:22.349Z,65.31
2018-06-15T20:17:58.786Z,66.00
2018-06-15T20:20:49.565Z,65.92
2018-06-15T20:23:34.431Z,66.55
2018-06-15T20:26:27.313Z,67.45
2018-06-15T20:29:00.851Z,67.45
2018-06-15T20:31:37.727Z,67.98
2018-06-15T20:34:11.931Z,67.97
2018-06-15T20:36:45.484Z,68.26
2018-06-15T20:39:19.398Z,69.05
2018-06-15T20:41:53.325Z,69.97
2018-06-15T20:44:37.672Z,71.13
2018-06-15T20:47:12.395Z,70.95
2018-06-15T20:49:49.965Z,70.83
2018-06-15T20:52:23.307Z,71.80
2018-06-15T20:54:59.792Z,71.62
2018-06-15T20:57:35.748Z,72.28
2018-06-15T21:00:15.416Z,72.42
2018-06-15T21:02:49.864Z,72.25
2018-06-15T21:05:26.118Z,72.36
2018-06-15T21:07:59.541Z,72.61
2018-06-15T21:10:36.706Z,72.81
2018-06-15T21:13:13.820Z,73.39
2018-06-15T21:15:51.097Z,73.17
2018-06-15T21:19:07.404Z,73.38
2018-06-15T21:21:41.677Z,73.51
2018-06-15T21:24:20.734Z,74.04
2018-06-15T21:27:05.130Z,74.02
2018-06-15T21:29:45.389Z,74.63
2018-06-15T21:32:19.564Z,74.73
2018-06-15T21:34:54.033Z,75.12
2018-06-15T21:37:29.621Z,75.24
2018-06-15T21:40:03.833Z,75.69
2018-06-15T21:42:43.723Z,75.46
2018-06-15T21:45:18.904Z,75.07
2018-06-15T21:47:54.876Z,74.92
2018-06-15T21:50:31.261Z,74.75
2018-06-15T21:53:10.830Z,75.06
2018-06-15T21:55:46.731Z,75.18
2018-06-15T21:58:20.705Z,75.73
2018-06-15T22:00:56.614Z,76.15
2018-06-15T22:03:31.633Z,76.42
2018-06-15T22:06:06.531Z,76.71
2018-06-15T22:08:45.124Z,76.84
2018-06-15T22:11:23.233Z,77.10
2018-06-15T22:13:57.838Z,77.07
2018-06-15T22:16:39.579Z,77.26
2018-06-15T22:19:14.531Z,77.07
2018-06-15T22:21:49.547Z,77.26
2018-06-15T22:24:29.507Z,77.79
2018-06-15T22:27:02.797Z,78.28
2018-06-15T22:29:38.943Z,78.65
2018-06-15T22:32:15.150Z,78.83
2018-06-15T22:34:48.978Z,79.27
2018-06-15T22:37:22.337Z,79.41
2018-06-15T22:39:58.676Z,79.90
2018-06-15T22:42:33.306Z,79.58
2018-06-15T22:45:09.603Z,79.94
2018-06-15T22:47:48.035Z,80.26
2018-06-15T22:50:22.534Z,80.65
2018-06-15T22:52:57.131Z,80.90
2018-06-15T22:55:29.747Z,81.21
2018-06-15T22:58:03.425Z,81.82
2018-06-15T23:00:37.748Z,81.98
2018-06-15T23:03:12.458Z,82.06
2018-06-15T23:05:46.594Z,82.31
2018-06-15T23:08:20.986Z,82.65
2018-06-15T23:10:53.633Z,82.94
2018-06-15T23:13:26.833Z,83.34
2018-06-15T23:16:00.664Z,83.56
2018-06-15T23:18:33.491Z,83.94
2018-06-15T23:21:06.809Z,83.86
2018-06-15T23:23:43.619Z,83.83
2018-06-15T23:26:17.320Z,83.83
2018-06-15T23:28:50.819Z,83.91
2018-06-15T23:31:23.925Z,83.98
2018-06-15T23:33:57.282Z,84.17
2018-06-15T23:36:29.870Z,84.08
2018-06-15T23:39:06.141Z,83.80
2018-06-15T23:41:41.209Z,83.59
2018-06-15T23:44:13.612Z,83.56
2018-06-15T23:46:46.572Z,83.72
2018-06-15T23:49:21.250Z,83.78
2018-06-15T23:51:53.821Z,83.64
2018-06-15T23:54:27.964Z,83.40
2018-06-15T23:57:02.150Z,83.36
2018-06-15T23:59:37.434Z,83.35
